sensor_id;sensor_type;location;lat;lon;timestamp;P1;durP1;ratioP1;P2;durP2;ratioP2
14584;SDS011;7379;51.506;11.876;2023-12-22T00:02:03;11.20;;;3.70;;
14584;SDS011;7379;51.506;11.876;2023-12-22T00:04:30;10.17;;;3.03;;
14584;SDS011;7379;51.506;11.876;2023-12-22T00:06:57;12.33;;;3.90;;
14584;SDS011;7379;51.506;11.876;2023-12-22T00:09:23;10.93;;;3.30;;
14584;SDS011;7379;51.506;11.876;2023-12-22T00:11:49;8.00;;;2.87;;
14584;SDS011;7379;51.506;11.876;2023-12-22T00:14:16;9.27;;;3.30;;
14584;SDS011;7379;51.506;11.876;2023-12-22T00:16:43;12.30;;;3.60;;
14584;SDS011;7379;51.506;11.876;2023-12-22T00:19:11;10.77;;;3.73;;
14584;SDS011;7379;51.506;11.876;2023-12-22T00:21:37;12.37;;;4.03;;
14584;SDS011;7379;51.506;11.876;2023-12-22T00:24:04;12.90;;;4.17;;
14584;SDS011;7379;51.506;11.876;2023-12-22T00:26:32;11.83;;;3.93;;
14584;SDS011;7379;51.506;11.876;2023-12-22T00:28:58;10.63;;;3.70;;
14584;SDS011;7379;51.506;11.876;2023-12-22T00:31:25;15.87;;;3.83;;
14584;SDS011;7379;51.506;11.876;2023-12-22T00:33:52;11.40;;;3.67;;
14584;SDS011;7379;51.506;11.876;2023-12-22T00:36:20;11.47;;;3.33;;
14584;SDS011;7379;51.506;11.876;2023-12-22T00:38:49;14.03;;;3.83;;
14584;SDS011;7379;51.506;11.876;2023-12-22T00:41:16;13.30;;;3.70;;
14584;SDS011;7379;51.506;11.876;2023-12-22T00:43:42;13.27;;;4.30;;
14584;SDS011;7379;51.506;11.876;2023-12-22T00:46:09;11.67;;;3.30;;
14584;SDS011;7379;51.506;11.876;2023-12-22T00:48:36;10.60;;;3.30;;
14584;SDS011;7379;51.506;11.876;2023-12-22T00:51:03;11.33;;;4.30;;
14584;SDS011;7379;51.506;11.876;2023-12-22T00:53:32;16.43;;;4.47;;
14584;SDS011;7379;51.506;11.876;2023-12-22T00:55:59;11.70;;;3.80;;
14584;SDS011;7379;51.506;11.876;2023-12-22T00:58:26;11.03;;;2.83;;
14584;SDS011;7379;51.506;11.876;2023-12-22T01:00:53;12.13;;;3.73;;
14584;SDS011;7379;51.506;11.876;2023-12-22T01:03:20;14.10;;;3.63;;
14584;SDS011;7379;51.506;11.876;2023-12-22T01:05:46;10.33;;;3.10;;
14584;SDS011;7379;51.506;11.876;2023-12-22T01:08:13;10.83;;;3.30;;
14584;SDS011;7379;51.506;11.876;2023-12-22T01:10:41;10.23;;;3.50;;
14584;SDS011;7379;51.506;11.876;2023-12-22T01:13:08;15.00;;;3.87;;
14584;SDS011;7379;51.506;11.876;2023-12-22T01:15:33;12.00;;;3.50;;
14584;SDS011;7379;51.506;11.876;2023-12-22T01:18:00;13.27;;;3.80;;
14584;SDS011;7379;51.506;11.876;2023-12-22T01:20:27;14.07;;;4.40;;
14584;SDS011;7379;51.506;11.876;2023-12-22T01:22:54;16.63;;;4.10;;
14584;SDS011;7379;51.506;11.876;2023-12-22T01:25:20;14.80;;;4.03;;
14584;SDS011;7379;51.506;11.876;2023-12-22T01:27:48;19.20;;;4.57;;
14584;SDS011;7379;51.506;11.876;2023-12-22T01:30:17;15.60;;;4.37;;
14584;SDS011;7379;51.506;11.876;2023-12-22T01:32:44;21.03;;;4.17;;
14584;SDS011;7379;51.506;11.876;2023-12-22T01:35:12;14.53;;;4.37;;
14584;SDS011;7379;51.506;11.876;2023-12-22T01:37:39;20.33;;;4.60;;
14584;SDS011;7379;51.506;11.876;2023-12-22T01:40:06;14.80;;;4.10;;
14584;SDS011;7379;51.506;11.876;2023-12-22T01:42:34;15.93;;;4.47;;
14584;SDS011;7379;51.506;11.876;2023-12-22T01:45:02;14.70;;;4.23;;
14584;SDS011;7379;51.506;11.876;2023-12-22T01:47:29;17.57;;;4.23;;
14584;SDS011;7379;51.506;11.876;2023-12-22T01:49:56;16.37;;;4.67;;
14584;SDS011;7379;51.506;11.876;2023-12-22T01:52:22;16.50;;;4.30;;
14584;SDS011;7379;51.506;11.876;2023-12-22T01:54:50;9.20;;;3.53;;
14584;SDS011;7379;51.506;11.876;2023-12-22T01:57:17;14.77;;;4.00;;
14584;SDS011;7379;51.506;11.876;2023-12-22T01:59:45;17.10;;;4.30;;
14584;SDS011;7379;51.506;11.876;2023-12-22T02:02:15;13.23;;;3.70;;
14584;SDS011;7379;51.506;11.876;2023-12-22T02:04:42;13.17;;;4.03;;
14584;SDS011;7379;51.506;11.876;2023-12-22T02:07:10;13.73;;;3.53;;
14584;SDS011;7379;51.506;11.876;2023-12-22T02:09:37;10.43;;;3.57;;
14584;SDS011;7379;51.506;11.876;2023-12-22T02:12:04;11.37;;;3.50;;
14584;SDS011;7379;51.506;11.876;2023-12-22T02:14:31;11.33;;;3.73;;
14584;SDS011;7379;51.506;11.876;2023-12-22T02:17:01;10.80;;;3.37;;
14584;SDS011;7379;51.506;11.876;2023-12-22T02:19:39;15.10;;;3.47;;
14584;SDS011;7379;51.506;11.876;2023-12-22T02:22:09;13.57;;;3.67;;
14584;SDS011;7379;51.506;11.876;2023-12-22T02:24:37;11.97;;;3.50;;
14584;SDS011;7379;51.506;11.876;2023-12-22T02:27:05;11.03;;;3.43;;
14584;SDS011;7379;51.506;11.876;2023-12-22T02:29:41;14.30;;;3.40;;
14584;SDS011;7379;51.506;11.876;2023-12-22T02:32:14;12.93;;;3.40;;
14584;SDS011;7379;51.506;11.876;2023-12-22T02:34:49;10.53;;;3.30;;
14584;SDS011;7379;51.506;11.876;2023-12-22T02:37:18;10.87;;;3.30;;
14584;SDS011;7379;51.506;11.876;2023-12-22T02:39:48;11.53;;;3.47;;
14584;SDS011;7379;51.506;11.876;2023-12-22T02:42:16;14.17;;;3.50;;
14584;SDS011;7379;51.506;11.876;2023-12-22T02:44:44;10.73;;;3.13;;
14584;SDS011;7379;51.506;11.876;2023-12-22T02:47:11;9.53;;;3.33;;
14584;SDS011;7379;51.506;11.876;2023-12-22T02:49:38;13.00;;;3.37;;
14584;SDS011;7379;51.506;11.876;2023-12-22T02:52:05;12.47;;;3.37;;
14584;SDS011;7379;51.506;11.876;2023-12-22T02:54:32;15.93;;;3.83;;
14584;SDS011;7379;51.506;11.876;2023-12-22T02:57:00;11.00;;;3.23;;
14584;SDS011;7379;51.506;11.876;2023-12-22T02:59:26;11.03;;;3.53;;
14584;SDS011;7379;51.506;11.876;2023-12-22T03:01:53;10.03;;;3.10;;
14584;SDS011;7379;51.506;11.876;2023-12-22T03:04:20;13.23;;;3.67;;
14584;SDS011;7379;51.506;11.876;2023-12-22T03:06:47;14.27;;;3.73;;
14584;SDS011;7379;51.506;11.876;2023-12-22T03:09:13;9.83;;;3.40;;
14584;SDS011;7379;51.506;11.876;2023-12-22T03:11:40;13.27;;;3.10;;
14584;SDS011;7379;51.506;11.876;2023-12-22T03:14:08;11.07;;;3.17;;
14584;SDS011;7379;51.506;11.876;2023-12-22T03:16:35;10.17;;;3.30;;
14584;SDS011;7379;51.506;11.876;2023-12-22T03:19:02;12.60;;;3.97;;
14584;SDS011;7379;51.506;11.876;2023-12-22T03:21:28;12.50;;;3.23;;
14584;SDS011;7379;51.506;11.876;2023-12-22T03:23:55;13.00;;;3.63;;
14584;SDS011;7379;51.506;11.876;2023-12-22T03:26:22;11.50;;;3.30;;
14584;SDS011;7379;51.506;11.876;2023-12-22T03:28:49;8.53;;;3.10;;
14584;SDS011;7379;51.506;11.876;2023-12-22T03:31:17;9.40;;;3.13;;
14584;SDS011;7379;51.506;11.876;2023-12-22T03:33:44;10.77;;;3.17;;
14584;SDS011;7379;51.506;11.876;2023-12-22T03:36:10;7.83;;;3.00;;
14584;SDS011;7379;51.506;11.876;2023-12-22T03:38:37;7.97;;;2.93;;
14584;SDS011;7379;51.506;11.876;2023-12-22T03:41:04;8.77;;;3.37;;
14584;SDS011;7379;51.506;11.876;2023-12-22T03:43:31;11.63;;;3.20;;
14584;SDS011;7379;51.506;11.876;2023-12-22T03:45:58;12.07;;;3.37;;
14584;SDS011;7379;51.506;11.876;2023-12-22T03:48:26;8.83;;;2.70;;
14584;SDS011;7379;51.506;11.876;2023-12-22T03:50:52;13.43;;;3.33;;
14584;SDS011;7379;51.506;11.876;2023-12-22T03:53:19;10.03;;;3.40;;
14584;SDS011;7379;51.506;11.876;2023-12-22T03:55:46;9.17;;;3.00;;
14584;SDS011;7379;51.506;11.876;2023-12-22T03:58:12;8.80;;;2.77;;
14584;SDS011;7379;51.506;11.876;2023-12-22T04:00:39;11.13;;;3.73;;
14584;SDS011;7379;51.506;11.876;2023-12-22T04:03:06;8.00;;;3.03;;
14584;SDS011;7379;51.506;11.876;2023-12-22T04:05:34;8.90;;;2.97;;
14584;SDS011;7379;51.506;11.876;2023-12-22T04:08:01;10.20;;;3.10;;
14584;SDS011;7379;51.506;11.876;2023-12-22T04:10:28;8.63;;;2.80;;
14584;SDS011;7379;51.506;11.876;2023-12-22T04:12:54;6.27;;;2.50;;
14584;SDS011;7379;51.506;11.876;2023-12-22T04:15:21;9.73;;;2.43;;
14584;SDS011;7379;51.506;11.876;2023-12-22T04:17:48;6.70;;;2.60;;
14584;SDS011;7379;51.506;11.876;2023-12-22T04:20:15;5.90;;;2.10;;
14584;SDS011;7379;51.506;11.876;2023-12-22T04:22:43;6.60;;;2.50;;
14584;SDS011;7379;51.506;11.876;2023-12-22T04:25:09;9.53;;;2.80;;
14584;SDS011;7379;51.506;11.876;2023-12-22T04:27:36;7.97;;;2.50;;
14584;SDS011;7379;51.506;11.876;2023-12-22T04:30:03;6.73;;;2.20;;
14584;SDS011;7379;51.506;11.876;2023-12-22T04:32:31;6.00;;;2.20;;
14584;SDS011;7379;51.506;11.876;2023-12-22T04:34:57;9.23;;;2.57;;
14584;SDS011;7379;51.506;11.876;2023-12-22T04:37:24;6.13;;;2.47;;
14584;SDS011;7379;51.506;11.876;2023-12-22T04:39:52;5.90;;;2.63;;
14584;SDS011;7379;51.506;11.876;2023-12-22T04:42:19;5.63;;;2.20;;
14584;SDS011;7379;51.506;11.876;2023-12-22T04:44:45;5.67;;;2.23;;
14584;SDS011;7379;51.506;11.876;2023-12-22T04:47:12;8.47;;;2.30;;
14584;SDS011;7379;51.506;11.876;2023-12-22T04:49:41;4.33;;;2.23;;
14584;SDS011;7379;51.506;11.876;2023-12-22T04:52:08;4.83;;;2.00;;
14584;SDS011;7379;51.506;11.876;2023-12-22T04:54:35;7.47;;;2.30;;
14584;SDS011;7379;51.506;11.876;2023-12-22T04:57:03;6.80;;;2.30;;
14584;SDS011;7379;51.506;11.876;2023-12-22T04:59:30;6.80;;;2.13;;
14584;SDS011;7379;51.506;11.876;2023-12-22T05:01:57;4.80;;;2.20;;
14584;SDS011;7379;51.506;11.876;2023-12-22T05:04:24;7.33;;;2.40;;
14584;SDS011;7379;51.506;11.876;2023-12-22T05:06:50;6.90;;;2.33;;
14584;SDS011;7379;51.506;11.876;2023-12-22T05:09:17;6.87;;;2.30;;
14584;SDS011;7379;51.506;11.876;2023-12-22T05:11:44;6.63;;;2.27;;
14584;SDS011;7379;51.506;11.876;2023-12-22T05:14:12;6.00;;;2.20;;
14584;SDS011;7379;51.506;11.876;2023-12-22T05:16:38;5.60;;;2.43;;
14584;SDS011;7379;51.506;11.876;2023-12-22T05:19:05;7.33;;;2.23;;
14584;SDS011;7379;51.506;11.876;2023-12-22T05:21:32;7.50;;;2.30;;
14584;SDS011;7379;51.506;11.876;2023-12-22T05:23:59;5.80;;;2.00;;
14584;SDS011;7379;51.506;11.876;2023-12-22T05:26:25;4.33;;;1.90;;
14584;SDS011;7379;51.506;11.876;2023-12-22T05:28:55;5.73;;;2.23;;
14584;SDS011;7379;51.506;11.876;2023-12-22T05:31:24;6.70;;;2.30;;
14584;SDS011;7379;51.506;11.876;2023-12-22T05:33:51;5.80;;;2.40;;
14584;SDS011;7379;51.506;11.876;2023-12-22T05:36:17;7.50;;;2.17;;
14584;SDS011;7379;51.506;11.876;2023-12-22T05:38:44;5.80;;;2.30;;
14584;SDS011;7379;51.506;11.876;2023-12-22T05:41:13;5.57;;;2.10;;
14584;SDS011;7379;51.506;11.876;2023-12-22T05:43:39;9.77;;;2.73;;
14584;SDS011;7379;51.506;11.876;2023-12-22T05:46:06;7.33;;;2.60;;
14584;SDS011;7379;51.506;11.876;2023-12-22T05:48:36;7.23;;;2.30;;
14584;SDS011;7379;51.506;11.876;2023-12-22T05:51:03;6.63;;;2.53;;
14584;SDS011;7379;51.506;11.876;2023-12-22T05:53:32;6.60;;;2.43;;
14584;SDS011;7379;51.506;11.876;2023-12-22T05:55:59;7.97;;;2.50;;
14584;SDS011;7379;51.506;11.876;2023-12-22T05:58:25;6.00;;;2.40;;
14584;SDS011;7379;51.506;11.876;2023-12-22T06:00:52;7.17;;;2.20;;
14584;SDS011;7379;51.506;11.876;2023-12-22T06:03:19;8.80;;;2.60;;
14584;SDS011;7379;51.506;11.876;2023-12-22T06:05:47;7.70;;;2.50;;
14584;SDS011;7379;51.506;11.876;2023-12-22T06:08:14;5.63;;;2.40;;
14584;SDS011;7379;51.506;11.876;2023-12-22T06:10:40;6.07;;;2.33;;
14584;SDS011;7379;51.506;11.876;2023-12-22T06:13:07;9.73;;;2.80;;
14584;SDS011;7379;51.506;11.876;2023-12-22T06:15:34;8.60;;;2.50;;
14584;SDS011;7379;51.506;11.876;2023-12-22T06:18:00;8.00;;;2.30;;
14584;SDS011;7379;51.506;11.876;2023-12-22T06:20:27;7.20;;;2.30;;
14584;SDS011;7379;51.506;11.876;2023-12-22T06:22:55;8.80;;;2.80;;
14584;SDS011;7379;51.506;11.876;2023-12-22T06:25:22;5.47;;;2.20;;
14584;SDS011;7379;51.506;11.876;2023-12-22T06:27:48;5.80;;;2.40;;
14584;SDS011;7379;51.506;11.876;2023-12-22T06:30:15;5.60;;;2.33;;
14584;SDS011;7379;51.506;11.876;2023-12-22T06:32:42;8.57;;;2.60;;
14584;SDS011;7379;51.506;11.876;2023-12-22T06:35:09;6.17;;;2.40;;
14584;SDS011;7379;51.506;11.876;2023-12-22T06:37:36;10.23;;;2.13;;
14584;SDS011;7379;51.506;11.876;2023-12-22T06:40:05;5.93;;;2.90;;
14584;SDS011;7379;51.506;11.876;2023-12-22T06:42:33;6.77;;;2.33;;
14584;SDS011;7379;51.506;11.876;2023-12-22T06:44:59;5.93;;;2.10;;
14584;SDS011;7379;51.506;11.876;2023-12-22T06:47:26;9.63;;;2.50;;
14584;SDS011;7379;51.506;11.876;2023-12-22T06:49:53;4.33;;;2.10;;
14584;SDS011;7379;51.506;11.876;2023-12-22T06:52:19;7.33;;;2.30;;
14584;SDS011;7379;51.506;11.876;2023-12-22T06:54:46;8.47;;;2.40;;
14584;SDS011;7379;51.506;11.876;2023-12-22T06:57:14;7.87;;;2.30;;
14584;SDS011;7379;51.506;11.876;2023-12-22T06:59:41;7.23;;;2.23;;
14584;SDS011;7379;51.506;11.876;2023-12-22T07:02:08;7.73;;;2.30;;
14584;SDS011;7379;51.506;11.876;2023-12-22T07:04:35;8.17;;;2.50;;
14584;SDS011;7379;51.506;11.876;2023-12-22T07:07:02;11.17;;;2.40;;
14584;SDS011;7379;51.506;11.876;2023-12-22T07:09:30;7.17;;;2.43;;
14584;SDS011;7379;51.506;11.876;2023-12-22T07:11:57;5.77;;;2.30;;
14584;SDS011;7379;51.506;11.876;2023-12-22T07:14:25;8.73;;;2.40;;
14584;SDS011;7379;51.506;11.876;2023-12-22T07:16:52;8.27;;;2.80;;
14584;SDS011;7379;51.506;11.876;2023-12-22T07:19:19;6.13;;;2.13;;
14584;SDS011;7379;51.506;11.876;2023-12-22T07:21:45;4.73;;;2.53;;
14584;SDS011;7379;51.506;11.876;2023-12-22T07:24:12;6.10;;;2.17;;
14584;SDS011;7379;51.506;11.876;2023-12-22T07:26:39;5.40;;;2.23;;
14584;SDS011;7379;51.506;11.876;2023-12-22T07:29:06;7.63;;;2.47;;
14584;SDS011;7379;51.506;11.876;2023-12-22T07:31:34;7.57;;;2.50;;
14584;SDS011;7379;51.506;11.876;2023-12-22T07:34:00;4.07;;;2.07;;
14584;SDS011;7379;51.506;11.876;2023-12-22T07:36:27;9.47;;;2.40;;
14584;SDS011;7379;51.506;11.876;2023-12-22T07:38:54;4.60;;;2.10;;
14584;SDS011;7379;51.506;11.876;2023-12-22T07:41:22;4.80;;;2.07;;
14584;SDS011;7379;51.506;11.876;2023-12-22T07:43:49;6.93;;;2.20;;
14584;SDS011;7379;51.506;11.876;2023-12-22T07:46:19;4.87;;;1.87;;
14584;SDS011;7379;51.506;11.876;2023-12-22T07:48:48;6.77;;;2.20;;
14584;SDS011;7379;51.506;11.876;2023-12-22T07:51:15;6.73;;;1.93;;
14584;SDS011;7379;51.506;11.876;2023-12-22T07:53:42;7.73;;;2.10;;
14584;SDS011;7379;51.506;11.876;2023-12-22T07:56:09;8.17;;;1.97;;
14584;SDS011;7379;51.506;11.876;2023-12-22T07:58:36;7.73;;;2.40;;
14584;SDS011;7379;51.506;11.876;2023-12-22T08:01:03;6.07;;;2.10;;
14584;SDS011;7379;51.506;11.876;2023-12-22T08:03:31;4.00;;;1.97;;
14584;SDS011;7379;51.506;11.876;2023-12-22T08:06:00;4.73;;;1.90;;
14584;SDS011;7379;51.506;11.876;2023-12-22T08:08:26;5.73;;;1.70;;
14584;SDS011;7379;51.506;11.876;2023-12-22T08:10:53;3.83;;;2.00;;
14584;SDS011;7379;51.506;11.876;2023-12-22T08:13:20;2.97;;;1.77;;
14584;SDS011;7379;51.506;11.876;2023-12-22T08:15:47;4.73;;;2.20;;
14584;SDS011;7379;51.506;11.876;2023-12-22T08:18:13;4.07;;;1.80;;
14584;SDS011;7379;51.506;11.876;2023-12-22T08:20:40;4.83;;;1.70;;
14584;SDS011;7379;51.506;11.876;2023-12-22T08:23:09;6.27;;;2.40;;
14584;SDS011;7379;51.506;11.876;2023-12-22T08:25:37;6.60;;;2.53;;
14584;SDS011;7379;51.506;11.876;2023-12-22T08:28:05;4.47;;;2.00;;
14584;SDS011;7379;51.506;11.876;2023-12-22T08:30:32;5.60;;;1.83;;
14584;SDS011;7379;51.506;11.876;2023-12-22T08:32:59;4.20;;;1.97;;
14584;SDS011;7379;51.506;11.876;2023-12-22T08:35:26;2.97;;;1.60;;
14584;SDS011;7379;51.506;11.876;2023-12-22T08:37:53;5.07;;;1.80;;
14584;SDS011;7379;51.506;11.876;2023-12-22T08:40:21;3.87;;;1.90;;
14584;SDS011;7379;51.506;11.876;2023-12-22T08:42:51;4.23;;;1.70;;
14584;SDS011;7379;51.506;11.876;2023-12-22T08:45:19;3.63;;;1.50;;
14584;SDS011;7379;51.506;11.876;2023-12-22T08:47:46;1.80;;;1.40;;
14584;SDS011;7379;51.506;11.876;2023-12-22T08:50:13;1.67;;;1.30;;
14584;SDS011;7379;51.506;11.876;2023-12-22T08:52:40;5.00;;;1.80;;
14584;SDS011;7379;51.506;11.876;2023-12-22T08:55:06;1.83;;;1.33;;
14584;SDS011;7379;51.506;11.876;2023-12-22T08:57:35;3.07;;;1.40;;
14584;SDS011;7379;51.506;11.876;2023-12-22T09:00:01;2.17;;;1.40;;
14584;SDS011;7379;51.506;11.876;2023-12-22T09:02:29;1.67;;;1.23;;
14584;SDS011;7379;51.506;11.876;2023-12-22T09:04:56;2.40;;;1.20;;
14584;SDS011;7379;51.506;11.876;2023-12-22T09:07:22;1.50;;;1.03;;
14584;SDS011;7379;51.506;11.876;2023-12-22T09:09:49;1.30;;;1.20;;
14584;SDS011;7379;51.506;11.876;2023-12-22T09:12:16;2.10;;;1.10;;
14584;SDS011;7379;51.506;11.876;2023-12-22T09:14:44;0.90;;;0.90;;
14584;SDS011;7379;51.506;11.876;2023-12-22T09:17:11;1.30;;;1.17;;
14584;SDS011;7379;51.506;11.876;2023-12-22T09:19:37;2.63;;;1.33;;
14584;SDS011;7379;51.506;11.876;2023-12-22T09:22:05;1.13;;;1.07;;
14584;SDS011;7379;51.506;11.876;2023-12-22T09:24:31;1.37;;;1.10;;
14584;SDS011;7379;51.506;11.876;2023-12-22T09:26:58;1.20;;;1.10;;
14584;SDS011;7379;51.506;11.876;2023-12-22T09:29:27;1.20;;;1.10;;
14584;SDS011;7379;51.506;11.876;2023-12-22T09:31:56;1.17;;;1.07;;
14584;SDS011;7379;51.506;11.876;2023-12-22T09:34:25;1.10;;;1.00;;
14584;SDS011;7379;51.506;11.876;2023-12-22T09:36:52;1.33;;;1.10;;
14584;SDS011;7379;51.506;11.876;2023-12-22T09:39:18;0.90;;;0.90;;
14584;SDS011;7379;51.506;11.876;2023-12-22T09:41:47;1.00;;;1.00;;
14584;SDS011;7379;51.506;11.876;2023-12-22T09:44:15;1.17;;;1.10;;
14584;SDS011;7379;51.506;11.876;2023-12-22T09:46:45;0.90;;;0.90;;
14584;SDS011;7379;51.506;11.876;2023-12-22T09:49:15;1.00;;;1.00;;
14584;SDS011;7379;51.506;11.876;2023-12-22T09:51:43;0.90;;;0.90;;
14584;SDS011;7379;51.506;11.876;2023-12-22T09:54:10;1.00;;;1.00;;
14584;SDS011;7379;51.506;11.876;2023-12-22T09:56:39;1.20;;;1.10;;
14584;SDS011;7379;51.506;11.876;2023-12-22T09:59:08;1.40;;;1.30;;
14584;SDS011;7379;51.506;11.876;2023-12-22T10:01:38;1.27;;;1.00;;
14584;SDS011;7379;51.506;11.876;2023-12-22T10:04:08;1.30;;;1.20;;
14584;SDS011;7379;51.506;11.876;2023-12-22T10:06:36;1.30;;;1.20;;
14584;SDS011;7379;51.506;11.876;2023-12-22T10:09:03;1.97;;;1.20;;
14584;SDS011;7379;51.506;11.876;2023-12-22T10:11:33;1.20;;;1.10;;
14584;SDS011;7379;51.506;11.876;2023-12-22T10:14:01;1.10;;;1.10;;
14584;SDS011;7379;51.506;11.876;2023-12-22T10:16:29;2.00;;;1.30;;
14584;SDS011;7379;51.506;11.876;2023-12-22T10:18:56;1.40;;;1.30;;
14584;SDS011;7379;51.506;11.876;2023-12-22T10:21:24;1.57;;;1.30;;
14584;SDS011;7379;51.506;11.876;2023-12-22T10:23:52;2.03;;;1.40;;
14584;SDS011;7379;51.506;11.876;2023-12-22T10:26:19;2.30;;;1.40;;
14584;SDS011;7379;51.506;11.876;2023-12-22T10:28:46;2.67;;;1.70;;
14584;SDS011;7379;51.506;11.876;2023-12-22T10:31:14;8.80;;;2.63;;
14584;SDS011;7379;51.506;11.876;2023-12-22T10:33:42;6.50;;;2.40;;
14584;SDS011;7379;51.506;11.876;2023-12-22T10:36:09;5.80;;;2.30;;
14584;SDS011;7379;51.506;11.876;2023-12-22T10:38:36;8.93;;;3.03;;
14584;SDS011;7379;51.506;11.876;2023-12-22T10:41:05;12.17;;;3.13;;
14584;SDS011;7379;51.506;11.876;2023-12-22T10:43:36;6.87;;;2.37;;
14584;SDS011;7379;51.506;11.876;2023-12-22T10:46:04;7.87;;;2.50;;
14584;SDS011;7379;51.506;11.876;2023-12-22T10:48:33;9.10;;;2.50;;
14584;SDS011;7379;51.506;11.876;2023-12-22T10:50:59;9.13;;;2.50;;
14584;SDS011;7379;51.506;11.876;2023-12-22T10:53:26;8.53;;;3.00;;
14584;SDS011;7379;51.506;11.876;2023-12-22T10:55:53;10.03;;;2.53;;
14584;SDS011;7379;51.506;11.876;2023-12-22T10:58:21;9.23;;;2.57;;
14584;SDS011;7379;51.506;11.876;2023-12-22T11:00:48;8.50;;;2.70;;
14584;SDS011;7379;51.506;11.876;2023-12-22T11:03:17;13.77;;;2.70;;
14584;SDS011;7379;51.506;11.876;2023-12-22T11:05:46;10.13;;;2.77;;
14584;SDS011;7379;51.506;11.876;2023-12-22T11:08:14;7.67;;;2.30;;
14584;SDS011;7379;51.506;11.876;2023-12-22T11:10:44;9.90;;;2.80;;
14584;SDS011;7379;51.506;11.876;2023-12-22T11:13:13;7.43;;;2.30;;
14584;SDS011;7379;51.506;11.876;2023-12-22T11:15:42;8.30;;;2.93;;
14584;SDS011;7379;51.506;11.876;2023-12-22T11:18:10;6.70;;;2.40;;
14584;SDS011;7379;51.506;11.876;2023-12-22T11:20:38;9.83;;;3.27;;
14584;SDS011;7379;51.506;11.876;2023-12-22T11:23:07;8.10;;;2.90;;
14584;SDS011;7379;51.506;11.876;2023-12-22T11:25:35;9.20;;;2.57;;
14584;SDS011;7379;51.506;11.876;2023-12-22T11:28:04;11.27;;;3.00;;
14584;SDS011;7379;51.506;11.876;2023-12-22T11:30:33;7.00;;;2.50;;
14584;SDS011;7379;51.506;11.876;2023-12-22T11:33:04;11.20;;;3.13;;
14584;SDS011;7379;51.506;11.876;2023-12-22T11:35:31;6.47;;;2.20;;
14584;SDS011;7379;51.506;11.876;2023-12-22T11:37:59;10.50;;;2.40;;
14584;SDS011;7379;51.506;11.876;2023-12-22T11:40:27;8.47;;;2.37;;
14584;SDS011;7379;51.506;11.876;2023-12-22T11:42:55;8.20;;;2.50;;
14584;SDS011;7379;51.506;11.876;2023-12-22T11:45:23;6.77;;;2.50;;
14584;SDS011;7379;51.506;11.876;2023-12-22T11:47:49;6.00;;;2.33;;
14584;SDS011;7379;51.506;11.876;2023-12-22T11:50:28;5.30;;;2.20;;
14584;SDS011;7379;51.506;11.876;2023-12-22T11:52:55;8.93;;;2.43;;
14584;SDS011;7379;51.506;11.876;2023-12-22T11:58:35;9.30;;;2.50;;
14584;SDS011;7379;51.506;11.876;2023-12-22T12:01:04;8.53;;;3.33;;
14584;SDS011;7379;51.506;11.876;2023-12-22T12:03:32;8.73;;;2.73;;
14584;SDS011;7379;51.506;11.876;2023-12-22T12:06:11;7.00;;;2.23;;
14584;SDS011;7379;51.506;11.876;2023-12-22T12:08:41;5.90;;;2.33;;
14584;SDS011;7379;51.506;11.876;2023-12-22T12:11:08;6.60;;;2.37;;
14584;SDS011;7379;51.506;11.876;2023-12-22T12:13:34;5.67;;;2.40;;
14584;SDS011;7379;51.506;11.876;2023-12-22T12:16:08;3.00;;;1.90;;
14584;SDS011;7379;51.506;11.876;2023-12-22T12:18:35;3.93;;;2.20;;
14584;SDS011;7379;51.506;11.876;2023-12-22T12:21:01;4.97;;;2.10;;
14584;SDS011;7379;51.506;11.876;2023-12-22T12:23:30;4.13;;;2.00;;
14584;SDS011;7379;51.506;11.876;2023-12-22T12:25:57;5.13;;;2.00;;
14584;SDS011;7379;51.506;11.876;2023-12-22T12:28:28;6.00;;;2.33;;
14584;SDS011;7379;51.506;11.876;2023-12-22T12:30:58;6.27;;;2.00;;
14584;SDS011;7379;51.506;11.876;2023-12-22T12:33:26;4.60;;;2.13;;
14584;SDS011;7379;51.506;11.876;2023-12-22T12:35:53;6.50;;;2.37;;
14584;SDS011;7379;51.506;11.876;2023-12-22T12:38:23;8.63;;;2.70;;
14584;SDS011;7379;51.506;11.876;2023-12-22T12:40:56;7.47;;;2.70;;
14584;SDS011;7379;51.506;11.876;2023-12-22T12:43:23;5.93;;;2.10;;
14584;SDS011;7379;51.506;11.876;2023-12-22T12:45:51;7.03;;;2.20;;
14584;SDS011;7379;51.506;11.876;2023-12-22T12:48:18;5.00;;;2.00;;
14584;SDS011;7379;51.506;11.876;2023-12-22T12:50:47;5.67;;;2.13;;
14584;SDS011;7379;51.506;11.876;2023-12-22T12:53:14;4.57;;;2.30;;
14584;SDS011;7379;51.506;11.876;2023-12-22T12:55:41;5.97;;;2.13;;
14584;SDS011;7379;51.506;11.876;2023-12-22T12:58:09;6.73;;;2.47;;
14584;SDS011;7379;51.506;11.876;2023-12-22T13:00:36;6.47;;;2.10;;
14584;SDS011;7379;51.506;11.876;2023-12-22T13:03:04;4.77;;;2.20;;
14584;SDS011;7379;51.506;11.876;2023-12-22T13:05:32;7.83;;;2.30;;
14584;SDS011;7379;51.506;11.876;2023-12-22T13:08:08;6.80;;;2.40;;
14584;SDS011;7379;51.506;11.876;2023-12-22T13:10:36;10.70;;;2.90;;
14584;SDS011;7379;51.506;11.876;2023-12-22T13:13:03;5.57;;;2.50;;
14584;SDS011;7379;51.506;11.876;2023-12-22T13:15:32;5.20;;;2.20;;
14584;SDS011;7379;51.506;11.876;2023-12-22T13:17:59;4.83;;;2.47;;
14584;SDS011;7379;51.506;11.876;2023-12-22T13:20:26;7.43;;;2.37;;
14584;SDS011;7379;51.506;11.876;2023-12-22T13:22:53;3.50;;;1.90;;
14584;SDS011;7379;51.506;11.876;2023-12-22T13:25:20;4.50;;;2.07;;
14584;SDS011;7379;51.506;11.876;2023-12-22T13:27:49;4.87;;;2.30;;
14584;SDS011;7379;51.506;11.876;2023-12-22T13:33:12;6.23;;;1.97;;
14584;SDS011;7379;51.506;11.876;2023-12-22T13:35:38;5.50;;;2.23;;
14584;SDS011;7379;51.506;11.876;2023-12-22T13:38:05;5.60;;;2.23;;
14584;SDS011;7379;51.506;11.876;2023-12-22T13:40:33;5.40;;;2.27;;
14584;SDS011;7379;51.506;11.876;2023-12-22T13:43:00;8.50;;;2.60;;
14584;SDS011;7379;51.506;11.876;2023-12-22T13:45:28;8.10;;;2.57;;
14584;SDS011;7379;51.506;11.876;2023-12-22T13:47:55;8.70;;;2.40;;
14584;SDS011;7379;51.506;11.876;2023-12-22T13:50:24;5.70;;;2.57;;
14584;SDS011;7379;51.506;11.876;2023-12-22T13:52:51;7.53;;;3.97;;
14584;SDS011;7379;51.506;11.876;2023-12-22T13:55:18;5.27;;;3.17;;
14584;SDS011;7379;51.506;11.876;2023-12-22T13:57:47;8.10;;;3.33;;
14584;SDS011;7379;51.506;11.876;2023-12-22T14:00:27;8.27;;;3.67;;
14584;SDS011;7379;51.506;11.876;2023-12-22T14:02:55;6.47;;;3.00;;
14584;SDS011;7379;51.506;11.876;2023-12-22T14:05:23;7.00;;;2.90;;
14584;SDS011;7379;51.506;11.876;2023-12-22T14:07:50;6.23;;;2.70;;
14584;SDS011;7379;51.506;11.876;2023-12-22T14:10:17;5.07;;;2.33;;
14584;SDS011;7379;51.506;11.876;2023-12-22T14:12:44;9.43;;;2.60;;
14584;SDS011;7379;51.506;11.876;2023-12-22T14:15:11;6.47;;;2.73;;
14584;SDS011;7379;51.506;11.876;2023-12-22T14:17:38;9.37;;;2.50;;
14584;SDS011;7379;51.506;11.876;2023-12-22T14:20:07;5.87;;;2.40;;
14584;SDS011;7379;51.506;11.876;2023-12-22T14:22:36;7.07;;;2.80;;
14584;SDS011;7379;51.506;11.876;2023-12-22T14:25:03;5.70;;;2.30;;
14584;SDS011;7379;51.506;11.876;2023-12-22T14:27:30;8.20;;;2.40;;
14584;SDS011;7379;51.506;11.876;2023-12-22T14:29:57;7.37;;;2.40;;
14584;SDS011;7379;51.506;11.876;2023-12-22T14:32:24;4.67;;;2.10;;
14584;SDS011;7379;51.506;11.876;2023-12-22T14:34:50;6.43;;;2.20;;
14584;SDS011;7379;51.506;11.876;2023-12-22T14:37:17;4.73;;;2.30;;
14584;SDS011;7379;51.506;11.876;2023-12-22T14:39:46;5.00;;;2.07;;
14584;SDS011;7379;51.506;11.876;2023-12-22T14:42:13;4.83;;;2.03;;
14584;SDS011;7379;51.506;11.876;2023-12-22T14:44:39;6.57;;;2.20;;
14584;SDS011;7379;51.506;11.876;2023-12-22T14:47:06;6.00;;;2.23;;
14584;SDS011;7379;51.506;11.876;2023-12-22T14:49:33;7.63;;;2.40;;
14584;SDS011;7379;51.506;11.876;2023-12-22T14:52:00;6.40;;;2.30;;